sensor_id;sensor_type;location;lat;lon;timestamp;P1;durP1;ratioP1;P2;durP2;ratioP2
11338;SDS011;5724;42.684;23.252;2024-01-07T00:01:57;14.20;;;11.00;;
11338;SDS011;5724;42.684;23.252;2024-01-07T00:04:22;16.80;;;12.60;;
11338;SDS011;5724;42.684;23.252;2024-01-07T00:06:48;15.63;;;12.30;;
11338;SDS011;5724;42.684;23.252;2024-01-07T00:09:13;15.47;;;12.07;;
11338;SDS011;5724;42.684;23.252;2024-01-07T00:11:39;15.27;;;12.20;;
11338;SDS011;5724;42.684;23.252;2024-01-07T00:14:05;25.13;;;15.10;;
11338;SDS011;5724;42.684;23.252;2024-01-07T00:16:31;18.97;;;11.43;;
11338;SDS011;5724;42.684;23.252;2024-01-07T00:19:00;11.73;;;10.10;;
11338;SDS011;5724;42.684;23.252;2024-01-07T00:21:26;16.37;;;11.37;;
11338;SDS011;5724;42.684;23.252;2024-01-07T00:23:51;15.77;;;12.40;;
11338;SDS011;5724;42.684;23.252;2024-01-07T00:26:17;11.43;;;8.90;;
11338;SDS011;5724;42.684;23.252;2024-01-07T00:28:42;14.73;;;11.80;;
11338;SDS011;5724;42.684;23.252;2024-01-07T00:31:08;16.57;;;12.73;;
11338;SDS011;5724;42.684;23.252;2024-01-07T00:33:34;11.70;;;7.23;;
11338;SDS011;5724;42.684;23.252;2024-01-07T00:36:02;11.93;;;9.33;;
11338;SDS011;5724;42.684;23.252;2024-01-07T00:38:28;9.10;;;8.07;;
11338;SDS011;5724;42.684;23.252;2024-01-07T00:40:53;9.93;;;8.33;;
11338;SDS011;5724;42.684;23.252;2024-01-07T00:43:19;9.73;;;8.53;;
11338;SDS011;5724;42.684;23.252;2024-01-07T00:45:44;15.13;;;12.40;;
11338;SDS011;5724;42.684;23.252;2024-01-07T00:48:10;14.37;;;12.60;;
11338;SDS011;5724;42.684;23.252;2024-01-07T00:50:35;16.10;;;12.23;;
11338;SDS011;5724;42.684;23.252;2024-01-07T00:53:01;20.27;;;14.53;;
11338;SDS011;5724;42.684;23.252;2024-01-07T00:55:26;19.30;;;14.17;;
11338;SDS011;5724;42.684;23.252;2024-01-07T00:57:52;17.73;;;11.60;;
11338;SDS011;5724;42.684;23.252;2024-01-07T01:00:18;21.83;;;13.33;;
11338;SDS011;5724;42.684;23.252;2024-01-07T01:02:44;13.83;;;12.40;;
11338;SDS011;5724;42.684;23.252;2024-01-07T01:05:10;19.67;;;13.87;;
11338;SDS011;5724;42.684;23.252;2024-01-07T01:07:35;18.70;;;14.13;;
11338;SDS011;5724;42.684;23.252;2024-01-07T01:10:01;17.93;;;14.20;;
11338;SDS011;5724;42.684;23.252;2024-01-07T01:12:26;18.83;;;14.87;;
11338;SDS011;5724;42.684;23.252;2024-01-07T01:14:52;20.53;;;15.47;;
11338;SDS011;5724;42.684;23.252;2024-01-07T01:17:17;24.13;;;15.47;;
11338;SDS011;5724;42.684;23.252;2024-01-07T01:19:42;20.57;;;14.60;;
11338;SDS011;5724;42.684;23.252;2024-01-07T01:22:08;18.53;;;13.93;;
11338;SDS011;5724;42.684;23.252;2024-01-07T01:24:33;20.27;;;14.23;;
11338;SDS011;5724;42.684;23.252;2024-01-07T01:26:59;18.37;;;13.80;;
11338;SDS011;5724;42.684;23.252;2024-01-07T01:29:25;20.03;;;14.57;;
11338;SDS011;5724;42.684;23.252;2024-01-07T01:31:50;15.57;;;13.23;;
11338;SDS011;5724;42.684;23.252;2024-01-07T01:34:16;18.83;;;12.33;;
11338;SDS011;5724;42.684;23.252;2024-01-07T01:36:41;18.67;;;13.03;;
11338;SDS011;5724;42.684;23.252;2024-01-07T01:39:07;18.77;;;11.10;;
11338;SDS011;5724;42.684;23.252;2024-01-07T01:41:33;17.97;;;10.90;;
11338;SDS011;5724;42.684;23.252;2024-01-07T01:43:59;18.53;;;13.70;;
11338;SDS011;5724;42.684;23.252;2024-01-07T01:46:25;19.10;;;14.57;;
11338;SDS011;5724;42.684;23.252;2024-01-07T01:48:52;23.63;;;10.90;;
11338;SDS011;5724;42.684;23.252;2024-01-07T01:51:18;17.77;;;13.87;;
11338;SDS011;5724;42.684;23.252;2024-01-07T01:53:44;20.57;;;13.70;;
11338;SDS011;5724;42.684;23.252;2024-01-07T01:56:10;17.67;;;13.13;;
11338;SDS011;5724;42.684;23.252;2024-01-07T01:58:36;18.63;;;14.20;;
11338;SDS011;5724;42.684;23.252;2024-01-07T02:01:02;15.17;;;10.10;;
11338;SDS011;5724;42.684;23.252;2024-01-07T02:03:28;22.30;;;14.77;;
11338;SDS011;5724;42.684;23.252;2024-01-07T02:05:54;19.60;;;11.60;;
11338;SDS011;5724;42.684;23.252;2024-01-07T02:08:21;10.43;;;8.60;;
11338;SDS011;5724;42.684;23.252;2024-01-07T02:10:46;14.73;;;13.30;;
11338;SDS011;5724;42.684;23.252;2024-01-07T02:13:12;16.27;;;13.93;;
11338;SDS011;5724;42.684;23.252;2024-01-07T02:15:37;16.97;;;13.33;;
11338;SDS011;5724;42.684;23.252;2024-01-07T02:18:03;15.23;;;12.90;;
11338;SDS011;5724;42.684;23.252;2024-01-07T02:20:29;18.33;;;10.27;;
11338;SDS011;5724;42.684;23.252;2024-01-07T02:22:54;18.20;;;14.00;;
11338;SDS011;5724;42.684;23.252;2024-01-07T02:25:22;14.10;;;11.63;;
11338;SDS011;5724;42.684;23.252;2024-01-07T02:27:48;10.67;;;7.10;;
11338;SDS011;5724;42.684;23.252;2024-01-07T02:30:13;13.37;;;10.47;;
11338;SDS011;5724;42.684;23.252;2024-01-07T02:32:39;7.30;;;6.53;;
11338;SDS011;5724;42.684;23.252;2024-01-07T02:35:05;16.53;;;12.50;;
11338;SDS011;5724;42.684;23.252;2024-01-07T02:37:31;16.70;;;12.43;;
11338;SDS011;5724;42.684;23.252;2024-01-07T02:39:56;18.43;;;12.33;;
11338;SDS011;5724;42.684;23.252;2024-01-07T02:42:22;17.63;;;13.00;;
11338;SDS011;5724;42.684;23.252;2024-01-07T02:44:47;14.93;;;12.70;;
11338;SDS011;5724;42.684;23.252;2024-01-07T02:47:13;16.70;;;13.10;;
11338;SDS011;5724;42.684;23.252;2024-01-07T02:49:38;13.97;;;10.13;;
11338;SDS011;5724;42.684;23.252;2024-01-07T02:52:04;15.40;;;9.83;;
11338;SDS011;5724;42.684;23.252;2024-01-07T02:54:29;13.73;;;11.10;;
11338;SDS011;5724;42.684;23.252;2024-01-07T02:56:55;14.77;;;10.77;;
11338;SDS011;5724;42.684;23.252;2024-01-07T02:59:20;12.43;;;10.70;;
11338;SDS011;5724;42.684;23.252;2024-01-07T03:01:46;16.67;;;9.33;;
11338;SDS011;5724;42.684;23.252;2024-01-07T03:04:12;15.63;;;11.40;;
11338;SDS011;5724;42.684;23.252;2024-01-07T03:06:39;13.63;;;8.47;;
11338;SDS011;5724;42.684;23.252;2024-01-07T03:09:04;18.60;;;12.73;;
11338;SDS011;5724;42.684;23.252;2024-01-07T03:11:30;11.57;;;9.87;;
11338;SDS011;5724;42.684;23.252;2024-01-07T03:13:56;13.03;;;10.33;;
11338;SDS011;5724;42.684;23.252;2024-01-07T03:16:23;11.97;;;9.77;;
11338;SDS011;5724;42.684;23.252;2024-01-07T03:18:49;11.00;;;9.70;;
11338;SDS011;5724;42.684;23.252;2024-01-07T03:21:22;9.83;;;8.33;;
11338;SDS011;5724;42.684;23.252;2024-01-07T03:23:49;9.20;;;8.30;;
11338;SDS011;5724;42.684;23.252;2024-01-07T03:26:16;8.53;;;7.70;;
11338;SDS011;5724;42.684;23.252;2024-01-07T03:28:42;7.57;;;6.83;;
11338;SDS011;5724;42.684;23.252;2024-01-07T03:31:09;8.83;;;6.77;;
11338;SDS011;5724;42.684;23.252;2024-01-07T03:33:37;5.93;;;5.43;;
11338;SDS011;5724;42.684;23.252;2024-01-07T03:36:09;5.90;;;5.07;;
11338;SDS011;5724;42.684;23.252;2024-01-07T03:38:36;4.40;;;3.80;;
11338;SDS011;5724;42.684;23.252;2024-01-07T03:41:02;4.47;;;3.93;;
11338;SDS011;5724;42.684;23.252;2024-01-07T03:43:28;4.83;;;3.10;;
11338;SDS011;5724;42.684;23.252;2024-01-07T03:45:54;3.47;;;3.20;;
11338;SDS011;5724;42.684;23.252;2024-01-07T03:48:19;3.13;;;2.93;;
11338;SDS011;5724;42.684;23.252;2024-01-07T03:50:45;3.10;;;2.97;;
11338;SDS011;5724;42.684;23.252;2024-01-07T03:53:10;3.60;;;3.30;;
11338;SDS011;5724;42.684;23.252;2024-01-07T03:55:36;3.83;;;3.50;;
11338;SDS011;5724;42.684;23.252;2024-01-07T03:58:01;3.70;;;3.40;;
11338;SDS011;5724;42.684;23.252;2024-01-07T04:00:28;4.20;;;3.90;;
11338;SDS011;5724;42.684;23.252;2024-01-07T04:02:53;3.10;;;2.93;;
11338;SDS011;5724;42.684;23.252;2024-01-07T04:05:19;3.17;;;2.97;;
11338;SDS011;5724;42.684;23.252;2024-01-07T04:07:44;1.90;;;1.80;;
11338;SDS011;5724;42.684;23.252;2024-01-07T04:10:10;2.40;;;2.30;;
11338;SDS011;5724;42.684;23.252;2024-01-07T04:12:36;2.50;;;2.20;;
11338;SDS011;5724;42.684;23.252;2024-01-07T04:15:02;1.93;;;1.83;;
11338;SDS011;5724;42.684;23.252;2024-01-07T04:17:28;2.00;;;1.83;;
11338;SDS011;5724;42.684;23.252;2024-01-07T04:19:54;1.63;;;1.30;;
11338;SDS011;5724;42.684;23.252;2024-01-07T04:22:20;1.90;;;1.80;;
11338;SDS011;5724;42.684;23.252;2024-01-07T04:24:45;2.23;;;2.13;;
11338;SDS011;5724;42.684;23.252;2024-01-07T04:27:11;1.70;;;1.60;;
11338;SDS011;5724;42.684;23.252;2024-01-07T04:29:36;2.20;;;2.10;;
11338;SDS011;5724;42.684;23.252;2024-01-07T04:32:02;2.50;;;2.40;;
11338;SDS011;5724;42.684;23.252;2024-01-07T04:34:27;2.60;;;2.40;;
11338;SDS011;5724;42.684;23.252;2024-01-07T04:36:53;2.70;;;2.60;;
11338;SDS011;5724;42.684;23.252;2024-01-07T04:39:18;2.60;;;2.43;;
11338;SDS011;5724;42.684;23.252;2024-01-07T04:41:44;2.37;;;1.30;;
11338;SDS011;5724;42.684;23.252;2024-01-07T04:44:09;1.73;;;1.70;;
11338;SDS011;5724;42.684;23.252;2024-01-07T04:46:38;1.50;;;1.50;;
11338;SDS011;5724;42.684;23.252;2024-01-07T04:49:04;1.40;;;1.30;;
11338;SDS011;5724;42.684;23.252;2024-01-07T04:51:33;1.80;;;1.70;;
11338;SDS011;5724;42.684;23.252;2024-01-07T04:53:59;1.90;;;1.80;;
11338;SDS011;5724;42.684;23.252;2024-01-07T04:56:24;2.33;;;1.63;;
11338;SDS011;5724;42.684;23.252;2024-01-07T04:58:50;2.17;;;2.07;;
11338;SDS011;5724;42.684;23.252;2024-01-07T05:01:15;2.00;;;1.90;;
11338;SDS011;5724;42.684;23.252;2024-01-07T05:03:41;2.30;;;2.20;;
11338;SDS011;5724;42.684;23.252;2024-01-07T05:06:09;11.63;;;9.27;;
11338;SDS011;5724;42.684;23.252;2024-01-07T05:08:36;3.60;;;3.40;;
11338;SDS011;5724;42.684;23.252;2024-01-07T05:11:02;4.03;;;3.60;;
11338;SDS011;5724;42.684;23.252;2024-01-07T05:13:31;3.50;;;3.17;;
11338;SDS011;5724;42.684;23.252;2024-01-07T05:15:57;4.93;;;3.67;;
11338;SDS011;5724;42.684;23.252;2024-01-07T05:18:23;5.10;;;4.60;;
11338;SDS011;5724;42.684;23.252;2024-01-07T05:20:51;5.47;;;4.80;;
11338;SDS011;5724;42.684;23.252;2024-01-07T05:23:17;6.13;;;3.90;;
11338;SDS011;5724;42.684;23.252;2024-01-07T05:25:43;7.83;;;5.63;;
11338;SDS011;5724;42.684;23.252;2024-01-07T05:28:12;5.90;;;5.23;;
11338;SDS011;5724;42.684;23.252;2024-01-07T05:30:38;6.90;;;6.17;;
11338;SDS011;5724;42.684;23.252;2024-01-07T05:33:04;8.33;;;5.77;;
11338;SDS011;5724;42.684;23.252;2024-01-07T05:35:30;8.37;;;6.50;;
11338;SDS011;5724;42.684;23.252;2024-01-07T05:37:55;6.60;;;4.00;;
11338;SDS011;5724;42.684;23.252;2024-01-07T05:40:21;5.57;;;5.07;;
11338;SDS011;5724;42.684;23.252;2024-01-07T05:42:47;6.77;;;6.10;;
11338;SDS011;5724;42.684;23.252;2024-01-07T05:45:13;8.70;;;7.73;;
11338;SDS011;5724;42.684;23.252;2024-01-07T05:47:38;7.40;;;6.20;;
11338;SDS011;5724;42.684;23.252;2024-01-07T05:50:06;9.87;;;5.90;;
11338;SDS011;5724;42.684;23.252;2024-01-07T05:52:32;3.80;;;3.40;;
11338;SDS011;5724;42.684;23.252;2024-01-07T05:54:57;11.23;;;8.80;;
11338;SDS011;5724;42.684;23.252;2024-01-07T05:57:23;6.30;;;5.70;;
11338;SDS011;5724;42.684;23.252;2024-01-07T05:59:49;7.83;;;5.47;;
11338;SDS011;5724;42.684;23.252;2024-01-07T06:02:15;6.70;;;6.10;;
11338;SDS011;5724;42.684;23.252;2024-01-07T06:04:42;9.70;;;7.83;;
11338;SDS011;5724;42.684;23.252;2024-01-07T06:07:07;9.40;;;8.37;;
11338;SDS011;5724;42.684;23.252;2024-01-07T06:09:33;9.57;;;8.30;;
11338;SDS011;5724;42.684;23.252;2024-01-07T06:11:59;9.53;;;8.57;;
11338;SDS011;5724;42.684;23.252;2024-01-07T06:14:24;12.20;;;10.57;;
11338;SDS011;5724;42.684;23.252;2024-01-07T06:16:50;12.47;;;9.33;;
11338;SDS011;5724;42.684;23.252;2024-01-07T06:19:16;12.37;;;11.17;;
11338;SDS011;5724;42.684;23.252;2024-01-07T06:21:42;13.43;;;12.03;;
11338;SDS011;5724;42.684;23.252;2024-01-07T06:24:08;12.67;;;10.83;;
11338;SDS011;5724;42.684;23.252;2024-01-07T06:26:33;15.33;;;11.67;;
11338;SDS011;5724;42.684;23.252;2024-01-07T06:28:59;12.43;;;11.17;;
11338;SDS011;5724;42.684;23.252;2024-01-07T06:31:25;11.73;;;9.53;;
11338;SDS011;5724;42.684;23.252;2024-01-07T06:33:51;11.93;;;9.97;;
11338;SDS011;5724;42.684;23.252;2024-01-07T06:36:17;11.60;;;10.37;;
11338;SDS011;5724;42.684;23.252;2024-01-07T06:38:42;11.07;;;10.07;;
11338;SDS011;5724;42.684;23.252;2024-01-07T06:41:09;11.43;;;10.03;;
11338;SDS011;5724;42.684;23.252;2024-01-07T06:43:36;12.93;;;11.27;;
11338;SDS011;5724;42.684;23.252;2024-01-07T06:46:01;10.93;;;8.57;;
11338;SDS011;5724;42.684;23.252;2024-01-07T06:48:27;10.63;;;9.50;;
11338;SDS011;5724;42.684;23.252;2024-01-07T06:50:54;10.60;;;9.60;;
11338;SDS011;5724;42.684;23.252;2024-01-07T06:53:19;11.27;;;9.80;;
11338;SDS011;5724;42.684;23.252;2024-01-07T06:55:46;11.73;;;10.63;;
11338;SDS011;5724;42.684;23.252;2024-01-07T06:58:13;11.63;;;10.53;;
11338;SDS011;5724;42.684;23.252;2024-01-07T07:00:38;12.40;;;10.60;;
11338;SDS011;5724;42.684;23.252;2024-01-07T07:03:04;12.83;;;11.67;;
11338;SDS011;5724;42.684;23.252;2024-01-07T07:05:31;12.37;;;10.50;;
11338;SDS011;5724;42.684;23.252;2024-01-07T07:07:57;11.57;;;10.37;;
11338;SDS011;5724;42.684;23.252;2024-01-07T07:10:23;12.40;;;11.23;;
11338;SDS011;5724;42.684;23.252;2024-01-07T07:12:49;11.73;;;10.57;;
11338;SDS011;5724;42.684;23.252;2024-01-07T07:15:18;8.23;;;7.37;;
11338;SDS011;5724;42.684;23.252;2024-01-07T07:17:44;10.87;;;9.77;;
11338;SDS011;5724;42.684;23.252;2024-01-07T07:20:09;11.30;;;10.23;;
11338;SDS011;5724;42.684;23.252;2024-01-07T07:22:36;10.90;;;9.27;;
11338;SDS011;5724;42.684;23.252;2024-01-07T07:25:01;12.03;;;10.00;;
11338;SDS011;5724;42.684;23.252;2024-01-07T07:27:27;13.30;;;12.00;;
11338;SDS011;5724;42.684;23.252;2024-01-07T07:29:53;10.57;;;9.60;;
11338;SDS011;5724;42.684;23.252;2024-01-07T07:32:18;10.47;;;9.37;;
11338;SDS011;5724;42.684;23.252;2024-01-07T07:34:44;8.43;;;7.67;;
11338;SDS011;5724;42.684;23.252;2024-01-07T07:37:09;10.30;;;9.30;;
11338;SDS011;5724;42.684;23.252;2024-01-07T07:39:35;12.43;;;10.63;;
11338;SDS011;5724;42.684;23.252;2024-01-07T07:42:01;12.50;;;11.07;;
11338;SDS011;5724;42.684;23.252;2024-01-07T07:44:27;8.80;;;8.03;;
11338;SDS011;5724;42.684;23.252;2024-01-07T07:46:52;7.47;;;6.77;;
11338;SDS011;5724;42.684;23.252;2024-01-07T07:49:18;10.97;;;10.03;;
11338;SDS011;5724;42.684;23.252;2024-01-07T07:51:44;10.47;;;9.47;;
11338;SDS011;5724;42.684;23.252;2024-01-07T07:54:09;11.27;;;10.13;;
11338;SDS011;5724;42.684;23.252;2024-01-07T07:56:35;10.60;;;9.63;;
11338;SDS011;5724;42.684;23.252;2024-01-07T07:59:01;11.03;;;10.07;;
11338;SDS011;5724;42.684;23.252;2024-01-07T08:01:27;10.43;;;8.97;;
11338;SDS011;5724;42.684;23.252;2024-01-07T08:03:53;11.73;;;10.63;;
11338;SDS011;5724;42.684;23.252;2024-01-07T08:06:19;9.97;;;9.17;;
11338;SDS011;5724;42.684;23.252;2024-01-07T08:08:45;11.20;;;10.00;;
11338;SDS011;5724;42.684;23.252;2024-01-07T08:11:11;10.37;;;9.30;;
11338;SDS011;5724;42.684;23.252;2024-01-07T08:13:37;11.73;;;9.70;;
11338;SDS011;5724;42.684;23.252;2024-01-07T08:16:03;10.87;;;9.77;;
11338;SDS011;5724;42.684;23.252;2024-01-07T08:18:31;12.20;;;10.17;;
11338;SDS011;5724;42.684;23.252;2024-01-07T08:20:56;12.30;;;9.97;;
11338;SDS011;5724;42.684;23.252;2024-01-07T08:23:23;10.93;;;9.83;;
11338;SDS011;5724;42.684;23.252;2024-01-07T08:25:49;14.60;;;13.10;;
11338;SDS011;5724;42.684;23.252;2024-01-07T08:28:16;16.17;;;14.37;;
11338;SDS011;5724;42.684;23.252;2024-01-07T08:30:42;15.63;;;12.23;;
11338;SDS011;5724;42.684;23.252;2024-01-07T08:33:07;14.57;;;12.90;;
11338;SDS011;5724;42.684;23.252;2024-01-07T08:35:33;14.13;;;12.73;;
11338;SDS011;5724;42.684;23.252;2024-01-07T08:37:58;14.00;;;12.13;;
11338;SDS011;5724;42.684;23.252;2024-01-07T08:40:24;13.60;;;11.63;;
11338;SDS011;5724;42.684;23.252;2024-01-07T08:42:49;12.07;;;10.90;;
11338;SDS011;5724;42.684;23.252;2024-01-07T08:45:15;11.63;;;10.47;;
11338;SDS011;5724;42.684;23.252;2024-01-07T08:47:40;11.30;;;10.30;;
11338;SDS011;5724;42.684;23.252;2024-01-07T08:50:06;10.33;;;9.33;;
11338;SDS011;5724;42.684;23.252;2024-01-07T08:52:32;9.30;;;8.53;;
11338;SDS011;5724;42.684;23.252;2024-01-07T08:55:00;10.57;;;9.50;;
11338;SDS011;5724;42.684;23.252;2024-01-07T08:57:29;10.33;;;9.53;;
11338;SDS011;5724;42.684;23.252;2024-01-07T08:59:55;10.67;;;9.67;;
11338;SDS011;5724;42.684;23.252;2024-01-07T09:02:20;12.60;;;11.07;;
11338;SDS011;5724;42.684;23.252;2024-01-07T09:04:45;11.00;;;9.87;;
11338;SDS011;5724;42.684;23.252;2024-01-07T09:07:11;11.57;;;10.67;;
11338;SDS011;5724;42.684;23.252;2024-01-07T09:09:37;12.43;;;11.13;;
11338;SDS011;5724;42.684;23.252;2024-01-07T09:12:02;11.37;;;10.37;;
11338;SDS011;5724;42.684;23.252;2024-01-07T09:14:29;10.77;;;9.67;;
11338;SDS011;5724;42.684;23.252;2024-01-07T09:16:55;10.97;;;9.97;;
11338;SDS011;5724;42.684;23.252;2024-01-07T09:19:20;11.13;;;10.03;;
11338;SDS011;5724;42.684;23.252;2024-01-07T09:21:46;10.27;;;9.27;;
11338;SDS011;5724;42.684;23.252;2024-01-07T09:24:12;8.13;;;7.63;;
11338;SDS011;5724;42.684;23.252;2024-01-07T09:26:37;7.33;;;6.83;;
11338;SDS011;5724;42.684;23.252;2024-01-07T09:29:03;7.50;;;6.97;;
11338;SDS011;5724;42.684;23.252;2024-01-07T09:31:29;7.00;;;6.40;;
11338;SDS011;5724;42.684;23.252;2024-01-07T09:33:54;6.78;;;6.18;;
11338;SDS011;5724;42.684;23.252;2024-01-07T09:36:20;6.63;;;6.07;;
11338;SDS011;5724;42.684;23.252;2024-01-07T09:38:45;6.82;;;6.30;;
11338;SDS011;5724;42.684;23.252;2024-01-07T09:41:11;6.35;;;5.95;;
11338;SDS011;5724;42.684;23.252;2024-01-07T09:43:36;7.45;;;6.75;;
11338;SDS011;5724;42.684;23.252;2024-01-07T09:46:04;7.20;;;6.68;;
11338;SDS011;5724;42.684;23.252;2024-01-07T09:48:30;7.00;;;6.30;;
11338;SDS011;5724;42.684;23.252;2024-01-07T09:50:57;6.68;;;6.03;;
11338;SDS011;5724;42.684;23.252;2024-01-07T09:53:25;4.82;;;4.45;;
11338;SDS011;5724;42.684;23.252;2024-01-07T09:55:56;6.65;;;5.95;;
11338;SDS011;5724;42.684;23.252;2024-01-07T09:58:32;2.80;;;2.47;;
11338;SDS011;5724;42.684;23.252;2024-01-07T10:00:58;5.82;;;3.50;;
11338;SDS011;5724;42.684;23.252;2024-01-07T10:03:24;1.08;;;1.00;;
11338;SDS011;5724;42.684;23.252;2024-01-07T10:05:50;4.50;;;1.25;;
11338;SDS011;5724;42.684;23.252;2024-01-07T10:08:17;1.25;;;0.88;;
11338;SDS011;5724;42.684;23.252;2024-01-07T10:10:43;2.40;;;0.80;;
11338;SDS011;5724;42.684;23.252;2024-01-07T10:13:09;2.67;;;0.85;;
11338;SDS011;5724;42.684;23.252;2024-01-07T10:15:35;1.90;;;1.13;;
11338;SDS011;5724;42.684;23.252;2024-01-07T10:18:06;2.33;;;1.25;;
11338;SDS011;5724;42.684;23.252;2024-01-07T10:20:33;2.22;;;1.13;;
11338;SDS011;5724;42.684;23.252;2024-01-07T10:23:00;1.83;;;1.08;;
11338;SDS011;5724;42.684;23.252;2024-01-07T10:25:28;1.20;;;1.10;;
11338;SDS011;5724;42.684;23.252;2024-01-07T10:28:01;1.83;;;1.00;;
11338;SDS011;5724;42.684;23.252;2024-01-07T10:30:28;2.80;;;1.15;;
11338;SDS011;5724;42.684;23.252;2024-01-07T10:32:59;2.05;;;0.88;;
11338;SDS011;5724;42.684;23.252;2024-01-07T10:35:27;2.13;;;1.00;;
11338;SDS011;5724;42.684;23.252;2024-01-07T10:37:59;2.65;;;1.20;;
11338;SDS011;5724;42.684;23.252;2024-01-07T10:40:26;2.80;;;1.10;;
11338;SDS011;5724;42.684;23.252;2024-01-07T10:42:52;1.15;;;1.00;;
11338;SDS011;5724;42.684;23.252;2024-01-07T10:45:20;5.40;;;1.40;;
11338;SDS011;5724;42.684;23.252;2024-01-07T10:47:49;1.90;;;1.15;;
11338;SDS011;5724;42.684;23.252;2024-01-07T10:50:19;3.85;;;1.63;;
11338;SDS011;5724;42.684;23.252;2024-01-07T10:52:49;2.95;;;1.20;;
11338;SDS011;5724;42.684;23.252;2024-01-07T10:55:17;1.30;;;0.70;;
11338;SDS011;5724;42.684;23.252;2024-01-07T10:57:44;2.10;;;1.20;;
11338;SDS011;5724;42.684;23.252;2024-01-07T11:00:12;1.02;;;0.90;;
11338;SDS011;5724;42.684;23.252;2024-01-07T11:03:33;1.70;;;1.60;;
11338;SDS011;5724;42.684;23.252;2024-01-07T11:05:47;1.08;;;1.02;;
11338;SDS011;5724;42.684;23.252;2024-01-07T11:08:26;4.07;;;1.30;;
11338;SDS011;5724;42.684;23.252;2024-01-07T11:11:16;1.30;;;1.20;;
11338;SDS011;5724;42.684;23.252;2024-01-07T11:13:45;2.13;;;0.90;;
11338;SDS011;5724;42.684;23.252;2024-01-07T11:16:12;3.47;;;0.95;;
11338;SDS011;5724;42.684;23.252;2024-01-07T11:18:49;1.25;;;1.10;;
11338;SDS011;5724;42.684;23.252;2024-01-07T11:21:22;2.78;;;1.13;;
11338;SDS011;5724;42.684;23.252;2024-01-07T11:23:51;3.30;;;2.75;;
11338;SDS011;5724;42.684;23.252;2024-01-07T11:26:18;2.15;;;2.05;;
11338;SDS011;5724;42.684;23.252;2024-01-07T11:28:58;1.38;;;0.70;;
11338;SDS011;5724;42.684;23.252;2024-01-07T11:37:11;0.88;;;0.88;;
11338;SDS011;5724;42.684;23.252;2024-01-07T11:39:47;2.28;;;1.20;;
11338;SDS011;5724;42.684;23.252;2024-01-07T11:42:14;2.83;;;1.35;;
11338;SDS011;5724;42.684;23.252;2024-01-07T11:44:47;6.25;;;5.40;;
11338;SDS011;5724;42.684;23.252;2024-01-07T11:47:14;7.20;;;6.63;;
11338;SDS011;5724;42.684;23.252;2024-01-07T11:49:44;7.03;;;6.43;;
11338;SDS011;5724;42.684;23.252;2024-01-07T11:52:10;6.07;;;5.68;;
11338;SDS011;5724;42.684;23.252;2024-01-07T11:54:39;8.57;;;7.88;;
11338;SDS011;5724;42.684;23.252;2024-01-07T11:57:06;11.63;;;10.25;;
11338;SDS011;5724;42.684;23.252;2024-01-07T11:59:35;9.07;;;5.90;;
11338;SDS011;5724;42.684;23.252;2024-01-07T12:02:04;17.00;;;7.60;;
11338;SDS011;5724;42.684;23.252;2024-01-07T12:04:30;7.82;;;6.53;;
11338;SDS011;5724;42.684;23.252;2024-01-07T12:06:56;7.35;;;6.75;;
11338;SDS011;5724;42.684;23.252;2024-01-07T12:09:22;16.27;;;14.63;;
11338;SDS011;5724;42.684;23.252;2024-01-07T12:11:47;10.80;;;9.65;;
11338;SDS011;5724;42.684;23.252;2024-01-07T12:14:13;27.25;;;23.90;;
11338;SDS011;5724;42.684;23.252;2024-01-07T12:16:39;18.50;;;16.70;;
11338;SDS011;5724;42.684;23.252;2024-01-07T12:19:05;8.43;;;7.63;;
11338;SDS011;5724;42.684;23.252;2024-01-07T12:21:31;8.27;;;7.65;;
11338;SDS011;5724;42.684;23.252;2024-01-07T12:23:57;7.00;;;6.50;;
11338;SDS011;5724;42.684;23.252;2024-01-07T12:26:27;6.90;;;6.30;;
11338;SDS011;5724;42.684;23.252;2024-01-07T12:28:53;6.68;;;6.28;;
11338;SDS011;5724;42.684;23.252;2024-01-07T12:31:22;5.80;;;5.50;;
11338;SDS011;5724;42.684;23.252;2024-01-07T12:33:48;6.20;;;5.47;;
11338;SDS011;5724;42.684;23.252;2024-01-07T12:36:15;7.13;;;6.13;;
11338;SDS011;5724;42.684;23.252;2024-01-07T12:38:41;6.32;;;5.72;;
11338;SDS011;5724;42.684;23.252;2024-01-07T12:41:07;6.95;;;5.90;;
11338;SDS011;5724;42.684;23.252;2024-01-07T12:43:33;5.60;;;5.25;;
11338;SDS011;5724;42.684;23.252;2024-01-07T12:45:59;8.65;;;5.38;;
11338;SDS011;5724;42.684;23.252;2024-01-07T12:48:32;6.40;;;5.72;;
11338;SDS011;5724;42.684;23.252;2024-01-07T12:50:58;9.35;;;6.40;;
11338;SDS011;5724;42.684;23.252;2024-01-07T12:53:25;5.97;;;5.38;;
11338;SDS011;5724;42.684;23.252;2024-01-07T12:55:52;7.57;;;5.50;;
11338;SDS011;5724;42.684;23.252;2024-01-07T12:58:18;6.07;;;5.63;;
11338;SDS011;5724;42.684;23.252;2024-01-07T13:00:43;6.43;;;5.68;;
11338;SDS011;5724;42.684;23.252;2024-01-07T13:03:09;7.25;;;6.63;;
11338;SDS011;5724;42.684;23.252;2024-01-07T13:05:42;8.65;;;6.40;;
11338;SDS011;5724;42.684;23.252;2024-01-07T13:08:11;7.03;;;6.45;;
11338;SDS011;5724;42.684;23.252;2024-01-07T13:10:38;6.18;;;5.78;;
11338;SDS011;5724;42.684;23.252;2024-01-07T13:13:04;8.00;;;6.43;;
11338;SDS011;5724;42.684;23.252;2024-01-07T13:15:29;9.35;;;6.32;;
11338;SDS011;5724;42.684;23.252;2024-01-07T13:17:55;7.28;;;6.68;;
11338;SDS011;5724;42.684;23.252;2024-01-07T13:20:21;7.22;;;6.57;;
11338;SDS011;5724;42.684;23.252;2024-01-07T13:22:47;6.50;;;6.10;;
11338;SDS011;5724;42.684;23.252;2024-01-07T13:25:13;6.65;;;6.00;;
11338;SDS011;5724;42.684;23.252;2024-01-07T13:27:39;6.68;;;6.25;;
11338;SDS011;5724;42.684;23.252;2024-01-07T13:30:04;7.43;;;6.80;;
11338;SDS011;5724;42.684;23.252;2024-01-07T13:32:31;7.63;;;7.00;;
11338;SDS011;5724;42.684;23.252;2024-01-07T13:35:01;7.00;;;6.47;;
11338;SDS011;5724;42.684;23.252;2024-01-07T13:37:30;6.80;;;6.35;;
11338;SDS011;5724;42.684;23.252;2024-01-07T13:39:56;7.50;;;6.75;;
11338;SDS011;5724;42.684;23.252;2024-01-07T13:42:22;7.75;;;7.05;;
11338;SDS011;5724;42.684;23.252;2024-01-07T13:44:47;7.57;;;6.97;;
11338;SDS011;5724;42.684;23.252;2024-01-07T13:47:13;7.80;;;7.20;;
11338;SDS011;5724;42.684;23.252;2024-01-07T13:49:40;8.07;;;7.57;;
11338;SDS011;5724;42.684;23.252;2024-01-07T13:52:06;8.50;;;7.80;;
11338;SDS011;5724;42.684;23.252;2024-01-07T13:54:31;12.35;;;10.35;;
11338;SDS011;5724;42.684;23.252;2024-01-07T13:56:57;10.35;;;9.52;;
11338;SDS011;5724;42.684;23.252;2024-01-07T13:59:23;9.20;;;8.35;;
11338;SDS011;5724;42.684;23.252;2024-01-07T14:01:48;9.32;;;8.43;;
11338;SDS011;5724;42.684;23.252;2024-01-07T14:04:14;9.70;;;8.70;;
11338;SDS011;5724;42.684;23.252;2024-01-07T14:06:40;10.07;;;9.20;;
11338;SDS011;5724;42.684;23.252;2024-01-07T14:09:07;9.60;;;8.90;;
11338;SDS011;5724;42.684;23.252;2024-01-07T14:11:34;9.23;;;8.43;;
11338;SDS011;5724;42.684;23.252;2024-01-07T14:13:59;9.23;;;8.18;;
11338;SDS011;5724;42.684;23.252;2024-01-07T14:16:27;10.27;;;8.38;;
11338;SDS011;5724;42.684;23.252;2024-01-07T14:18:53;9.00;;;8.25;;
11338;SDS011;5724;42.684;23.252;2024-01-07T14:24:00;9.75;;;8.95;;
11338;SDS011;5724;42.684;23.252;2024-01-07T14:26:29;12.35;;;9.73;;
11338;SDS011;5724;42.684;23.252;2024-01-07T14:28:54;10.82;;;9.88;;
11338;SDS011;5724;42.684;23.252;2024-01-07T14:31:20;11.48;;;10.38;;
11338;SDS011;5724;42.684;23.252;2024-01-07T14:33:45;13.55;;;11.75;;
11338;SDS011;5724;42.684;23.252;2024-01-07T14:36:11;11.13;;;10.18;;
11338;SDS011;5724;42.684;23.252;2024-01-07T14:38:47;12.32;;;11.23;;
11338;SDS011;5724;42.684;23.252;2024-01-07T14:41:13;14.95;;;9.85;;